createdAt,value
2023-01-04T00:08:16.270Z,9.06
2023-01-04T00:18:19.357Z,9.04
2023-01-04T00:28:23.595Z,9.13
2023-01-04T00:38:26.868Z,9.14
2023-01-04T00:48:31.361Z,9.19
2023-01-04T00:58:34.683Z,9.24
2023-01-04T01:08:39.029Z,9.24
2023-01-04T01:18:44.400Z,9.26
2023-01-04T01:28:50.105Z,9.27
2023-01-04T01:38:54.050Z,8.78
2023-01-04T01:49:04.496Z,8.87
2023-01-04T01:59:09.797Z,8.99
2023-01-04T02:09:15.199Z,9.11
2023-01-04T02:19:44.268Z,9.20
2023-01-04T02:30:28.320Z,9.27
2023-01-04T02:40:43.344Z,9.43
2023-01-04T02:50:53.790Z,9.42
2023-01-04T03:01:26.481Z,9.45
2023-01-04T03:11:54.153Z,9.47
2023-01-04T03:21:58.877Z,9.47
2023-01-04T03:32:25.377Z,9.54
2023-01-04T03:42:55.744Z,9.47
2023-01-04T03:53:00.356Z,9.41
2023-01-04T04:03:08.339Z,9.47
2023-01-04T04:13:11.236Z,9.58
2023-01-04T04:23:15.515Z,9.46
2023-01-04T04:33:18.782Z,9.15
2023-01-04T04:43:23.152Z,9.14
2023-01-04T04:53:26.652Z,9.23
2023-01-04T05:03:31.014Z,9.37
2023-01-04T05:13:34.322Z,9.38
2023-01-04T05:23:38.779Z,9.52
2023-01-04T05:33:42.020Z,9.47
2023-01-04T05:43:46.563Z,9.51
2023-01-04T05:53:49.451Z,9.55
2023-01-04T06:03:53.800Z,9.62
2023-01-04T06:13:56.702Z,9.60
2023-01-04T06:24:01.299Z,9.67
2023-01-04T06:34:04.609Z,9.68
2023-01-04T06:44:09.514Z,9.71
2023-01-04T06:54:12.910Z,9.76
2023-01-04T07:04:18.175Z,9.79
2023-01-04T07:14:22.245Z,9.83
2023-01-04T07:24:30.338Z,9.87
2023-01-04T07:34:35.564Z,9.91
2023-01-04T07:44:39.940Z,9.97
2023-01-04T07:54:43.337Z,10.05
2023-01-04T08:04:48.516Z,10.13
2023-01-04T08:14:51.641Z,10.21
2023-01-04T08:24:56.135Z,10.20
2023-01-04T08:34:59.133Z,10.22
2023-01-04T08:45:03.621Z,10.29
2023-01-04T08:55:12.582Z,10.46
2023-01-04T09:05:22.245Z,10.58
2023-01-04T09:15:26.233Z,10.72
2023-01-04T09:25:30.747Z,10.90
2023-01-04T09:35:34.159Z,11.10
2023-01-04T09:45:38.785Z,11.29
2023-01-04T09:55:48.223Z,11.50
2023-01-04T10:06:15.762Z,11.66
2023-01-04T10:17:10.423Z,11.71
2023-01-04T10:27:02.038Z,11.73
2023-01-04T10:37:14.139Z,11.85
2023-01-04T10:47:27.806Z,11.84
2023-01-04T10:57:38.086Z,11.79
2023-01-04T11:07:48.996Z,11.89
2023-01-04T11:17:53.337Z,11.83
2023-01-04T11:28:03.448Z,11.80
2023-01-04T11:38:15.506Z,11.67
2023-01-04T11:48:20.027Z,11.81
2023-01-04T11:58:28.111Z,11.83
2023-01-04T12:08:34.972Z,11.92
2023-01-04T12:18:41.960Z,12.08
2023-01-04T12:28:48.272Z,12.15
2023-01-04T12:39:21.126Z,12.16
2023-01-04T12:49:53.133Z,12.07
2023-01-04T12:59:58.400Z,12.07
2023-01-04T13:10:19.342Z,12.23
2023-01-04T13:20:25.834Z,12.33
2023-01-04T13:30:33.177Z,12.44
2023-01-04T13:40:37.622Z,12.48
2023-01-04T13:50:47.287Z,12.62
2023-01-04T14:00:55.980Z,12.61
2023-01-04T14:11:01.327Z,12.62
2023-01-04T14:21:04.537Z,12.74
2023-01-04T14:31:21.021Z,12.67
2023-01-04T14:41:27.128Z,12.72
2023-01-04T14:51:35.455Z,12.75
2023-01-04T15:01:38.537Z,12.89
2023-01-04T15:11:43.080Z,12.81
2023-01-04T15:21:46.219Z,12.84
2023-01-04T15:31:50.455Z,12.83
2023-01-04T15:42:11.090Z,12.72
2023-01-04T15:52:15.676Z,12.77
2023-01-04T16:02:18.996Z,12.82
2023-01-04T16:12:40.949Z,12.90
2023-01-04T16:22:44.367Z,12.91
2023-01-04T16:32:48.895Z,12.98
2023-01-04T16:42:52.856Z,12.88
2023-01-04T16:52:57.421Z,12.81
2023-01-04T17:03:00.541Z,12.84
2023-01-04T17:13:06.633Z,12.74
2023-01-04T17:23:09.964Z,12.75
2023-01-04T17:33:14.750Z,12.87
2023-01-04T17:43:18.070Z,12.56
2023-01-04T17:53:22.684Z,12.45
2023-01-04T18:03:26.378Z,12.48
2023-01-04T18:13:30.730Z,12.68
2023-01-04T18:23:33.869Z,12.65
2023-01-04T18:33:38.586Z,12.65
2023-01-04T18:43:53.543Z,12.73
2023-01-04T18:54:06.592Z,12.70
2023-01-04T19:04:29.011Z,12.65
2023-01-04T19:14:33.355Z,12.70
2023-01-04T19:24:36.943Z,12.71
2023-01-04T19:34:42.256Z,12.88
2023-01-04T19:44:45.247Z,12.84
2023-01-04T19:54:49.572Z,12.92
2023-01-04T20:04:53.218Z,12.89
2023-01-04T20:14:57.976Z,12.85
2023-01-04T20:25:00.717Z,12.86
2023-01-04T20:35:05.731Z,12.84
2023-01-04T20:45:09.843Z,12.69
2023-01-04T20:55:17.542Z,12.75
2023-01-04T21:05:20.940Z,12.78
2023-01-04T21:15:25.892Z,12.71
2023-01-04T21:25:29.132Z,12.72
2023-01-04T21:35:34.286Z,12.73
2023-01-04T21:45:39.933Z,12.81
2023-01-04T21:55:44.198Z,12.67
2023-01-04T22:05:47.308Z,12.71
2023-01-04T22:15:51.941Z,12.61
2023-01-04T22:25:57.259Z,12.65
2023-01-04T22:36:05.414Z,12.54
2023-01-04T22:46:13.127Z,12.55
2023-01-04T22:56:21.953Z,12.47
2023-01-04T23:06:27.222Z,12.15
2023-01-04T23:16:33.175Z,12.24
2023-01-04T23:26:36.537Z,12.10
2023-01-04T23:36:42.993Z,11.96
2023-01-04T23:46:46.398Z,11.98
2023-01-04T23:56:50.869Z,11.93
